sensor_id;sensor_type;location;lat;lon;timestamp;temperature;humidity
17619;DHT22;8928;51.678;6.074;2023-04-01T00:00:34;9.60;99.90
17619;DHT22;8928;51.678;6.074;2023-04-01T00:03:24;9.50;99.90
17619;DHT22;8928;51.678;6.074;2023-04-01T00:06:13;9.50;99.90
17619;DHT22;8928;51.678;6.074;2023-04-01T00:09:01;9.50;99.90
17619;DHT22;8928;51.678;6.074;2023-04-01T00:11:48;9.60;99.90
17619;DHT22;8928;51.678;6.074;2023-04-01T00:14:35;9.50;99.90
17619;DHT22;8928;51.678;6.074;2023-04-01T00:17:22;9.50;99.90
17619;DHT22;8928;51.678;6.074;2023-04-01T00:20:12;9.50;99.90
17619;DHT22;8928;51.678;6.074;2023-04-01T00:23:00;9.50;99.90
17619;DHT22;8928;51.678;6.074;2023-04-01T00:25:47;9.50;99.90
17619;DHT22;8928;51.678;6.074;2023-04-01T00:28:35;9.50;99.90
17619;DHT22;8928;51.678;6.074;2023-04-01T00:31:22;9.50;99.90
17619;DHT22;8928;51.678;6.074;2023-04-01T00:34:09;9.50;99.90
17619;DHT22;8928;51.678;6.074;2023-04-01T00:36:58;9.50;99.90
17619;DHT22;8928;51.678;6.074;2023-04-01T00:39:45;9.50;99.90
17619;DHT22;8928;51.678;6.074;2023-04-01T00:42:32;9.50;99.90
17619;DHT22;8928;51.678;6.074;2023-04-01T00:45:29;9.50;99.90
17619;DHT22;8928;51.678;6.074;2023-04-01T00:48:18;9.50;99.90
17619;DHT22;8928;51.678;6.074;2023-04-01T00:51:09;9.50;99.90
17619;DHT22;8928;51.678;6.074;2023-04-01T00:53:59;9.50;99.90
17619;DHT22;8928;51.678;6.074;2023-04-01T00:56:50;9.50;99.90
17619;DHT22;8928;51.678;6.074;2023-04-01T00:59:44;9.50;99.90
17619;DHT22;8928;51.678;6.074;2023-04-01T01:02:32;9.50;99.90
17619;DHT22;8928;51.678;6.074;2023-04-01T01:05:23;9.50;99.90
17619;DHT22;8928;51.678;6.074;2023-04-01T01:08:17;9.50;99.90
17619;DHT22;8928;51.678;6.074;2023-04-01T01:11:11;9.50;99.90
17619;DHT22;8928;51.678;6.074;2023-04-01T01:14:01;9.50;99.90
17619;DHT22;8928;51.678;6.074;2023-04-01T01:16:56;9.50;99.90
17619;DHT22;8928;51.678;6.074;2023-04-01T01:20:18;9.50;99.90
17619;DHT22;8928;51.678;6.074;2023-04-01T01:26:51;9.50;99.90
17619;DHT22;8928;51.678;6.074;2023-04-01T01:29:54;9.50;99.90
17619;DHT22;8928;51.678;6.074;2023-04-01T01:33:05;9.50;99.90
17619;DHT22;8928;51.678;6.074;2023-04-01T01:35:56;9.40;99.90
17619;DHT22;8928;51.678;6.074;2023-04-01T01:38:44;9.50;99.90
17619;DHT22;8928;51.678;6.074;2023-04-01T01:41:32;9.50;99.90
17619;DHT22;8928;51.678;6.074;2023-04-01T01:44:21;9.50;99.90
17619;DHT22;8928;51.678;6.074;2023-04-01T01:47:09;9.50;99.90
17619;DHT22;8928;51.678;6.074;2023-04-01T01:49:57;9.50;99.90
17619;DHT22;8928;51.678;6.074;2023-04-01T01:52:46;9.50;99.90
17619;DHT22;8928;51.678;6.074;2023-04-01T01:55:35;9.50;99.90
17619;DHT22;8928;51.678;6.074;2023-04-01T01:58:27;9.50;99.90
17619;DHT22;8928;51.678;6.074;2023-04-01T02:01:18;9.50;99.90
17619;DHT22;8928;51.678;6.074;2023-04-01T02:04:07;9.50;99.90
17619;DHT22;8928;51.678;6.074;2023-04-01T02:07:00;9.50;99.90
17619;DHT22;8928;51.678;6.074;2023-04-01T02:09:50;9.50;99.90
17619;DHT22;8928;51.678;6.074;2023-04-01T02:12:38;9.50;99.90
17619;DHT22;8928;51.678;6.074;2023-04-01T02:15:27;9.50;99.90
17619;DHT22;8928;51.678;6.074;2023-04-01T02:18:20;9.50;99.90
17619;DHT22;8928;51.678;6.074;2023-04-01T02:21:08;9.50;99.90
17619;DHT22;8928;51.678;6.074;2023-04-01T02:23:56;9.50;99.90
17619;DHT22;8928;51.678;6.074;2023-04-01T02:26:46;9.50;99.90
17619;DHT22;8928;51.678;6.074;2023-04-01T02:29:33;9.50;99.90
17619;DHT22;8928;51.678;6.074;2023-04-01T02:32:21;9.50;99.90
17619;DHT22;8928;51.678;6.074;2023-04-01T02:35:10;9.50;99.90
17619;DHT22;8928;51.678;6.074;2023-04-01T02:37:58;9.50;99.90
17619;DHT22;8928;51.678;6.074;2023-04-01T02:40:47;9.50;99.90
17619;DHT22;8928;51.678;6.074;2023-04-01T02:43:36;9.50;99.90
17619;DHT22;8928;51.678;6.074;2023-04-01T02:46:23;9.50;99.90
17619;DHT22;8928;51.678;6.074;2023-04-01T02:49:11;9.50;99.90
17619;DHT22;8928;51.678;6.074;2023-04-01T02:51:58;9.50;99.90
17619;DHT22;8928;51.678;6.074;2023-04-01T02:54:45;9.50;99.90
17619;DHT22;8928;51.678;6.074;2023-04-01T02:57:32;9.50;99.90
17619;DHT22;8928;51.678;6.074;2023-04-01T03:00:20;9.50;99.90
17619;DHT22;8928;51.678;6.074;2023-04-01T03:03:08;9.50;99.90
17619;DHT22;8928;51.678;6.074;2023-04-01T03:05:55;9.50;99.90
17619;DHT22;8928;51.678;6.074;2023-04-01T03:08:44;9.50;99.90
17619;DHT22;8928;51.678;6.074;2023-04-01T03:11:31;9.50;99.90
17619;DHT22;8928;51.678;6.074;2023-04-01T03:14:18;9.40;99.90
17619;DHT22;8928;51.678;6.074;2023-04-01T03:17:06;9.40;99.90
17619;DHT22;8928;51.678;6.074;2023-04-01T03:19:53;9.40;99.90
17619;DHT22;8928;51.678;6.074;2023-04-01T03:22:41;9.40;99.90
17619;DHT22;8928;51.678;6.074;2023-04-01T03:25:28;9.40;99.90
17619;DHT22;8928;51.678;6.074;2023-04-01T03:28:16;9.40;99.90
17619;DHT22;8928;51.678;6.074;2023-04-01T03:31:03;9.40;99.90
17619;DHT22;8928;51.678;6.074;2023-04-01T03:33:52;9.40;99.90
17619;DHT22;8928;51.678;6.074;2023-04-01T03:36:39;9.40;99.90
17619;DHT22;8928;51.678;6.074;2023-04-01T03:39:26;9.40;99.90
17619;DHT22;8928;51.678;6.074;2023-04-01T03:42:13;9.30;99.90
17619;DHT22;8928;51.678;6.074;2023-04-01T03:45:00;9.30;99.90
17619;DHT22;8928;51.678;6.074;2023-04-01T03:47:47;9.40;99.90
17619;DHT22;8928;51.678;6.074;2023-04-01T03:50:35;9.30;99.90
17619;DHT22;8928;51.678;6.074;2023-04-01T03:53:22;9.30;99.90
17619;DHT22;8928;51.678;6.074;2023-04-01T03:56:10;9.30;99.90
17619;DHT22;8928;51.678;6.074;2023-04-01T03:58:57;9.30;99.90
17619;DHT22;8928;51.678;6.074;2023-04-01T04:01:46;9.30;99.90
17619;DHT22;8928;51.678;6.074;2023-04-01T04:04:33;9.30;99.90
17619;DHT22;8928;51.678;6.074;2023-04-01T04:07:22;9.30;99.90
17619;DHT22;8928;51.678;6.074;2023-04-01T04:10:10;9.30;99.90
17619;DHT22;8928;51.678;6.074;2023-04-01T04:12:57;9.30;99.90
17619;DHT22;8928;51.678;6.074;2023-04-01T04:15:44;9.30;99.90
17619;DHT22;8928;51.678;6.074;2023-04-01T04:18:31;9.30;99.90
17619;DHT22;8928;51.678;6.074;2023-04-01T04:21:18;9.30;99.90
17619;DHT22;8928;51.678;6.074;2023-04-01T04:24:06;9.30;99.90
17619;DHT22;8928;51.678;6.074;2023-04-01T04:26:54;9.30;99.90
17619;DHT22;8928;51.678;6.074;2023-04-01T04:29:41;9.30;99.90
17619;DHT22;8928;51.678;6.074;2023-04-01T04:32:30;9.30;99.90
17619;DHT22;8928;51.678;6.074;2023-04-01T04:35:17;9.30;99.90
17619;DHT22;8928;51.678;6.074;2023-04-01T04:38:04;9.30;99.90
17619;DHT22;8928;51.678;6.074;2023-04-01T04:40:52;9.20;99.90
17619;DHT22;8928;51.678;6.074;2023-04-01T04:43:40;9.30;99.90
17619;DHT22;8928;51.678;6.074;2023-04-01T04:46:27;9.20;99.90
17619;DHT22;8928;51.678;6.074;2023-04-01T04:49:14;9.20;99.90
17619;DHT22;8928;51.678;6.074;2023-04-01T04:52:01;9.20;99.90
17619;DHT22;8928;51.678;6.074;2023-04-01T04:54:48;9.20;99.90
17619;DHT22;8928;51.678;6.074;2023-04-01T04:57:37;9.20;99.90
17619;DHT22;8928;51.678;6.074;2023-04-01T05:00:24;9.20;99.90
17619;DHT22;8928;51.678;6.074;2023-04-01T05:03:12;9.20;99.90
17619;DHT22;8928;51.678;6.074;2023-04-01T05:05:59;9.20;99.90
17619;DHT22;8928;51.678;6.074;2023-04-01T05:08:46;9.20;99.90
17619;DHT22;8928;51.678;6.074;2023-04-01T05:11:33;9.20;99.90
17619;DHT22;8928;51.678;6.074;2023-04-01T05:14:22;9.20;99.90
17619;DHT22;8928;51.678;6.074;2023-04-01T05:17:09;9.20;99.90
17619;DHT22;8928;51.678;6.074;2023-04-01T05:19:57;9.20;99.90
17619;DHT22;8928;51.678;6.074;2023-04-01T05:22:44;9.10;99.90
17619;DHT22;8928;51.678;6.074;2023-04-01T05:25:31;9.10;99.90
17619;DHT22;8928;51.678;6.074;2023-04-01T05:28:18;9.10;99.90
17619;DHT22;8928;51.678;6.074;2023-04-01T05:31:07;9.10;99.90
17619;DHT22;8928;51.678;6.074;2023-04-01T05:33:55;9.10;99.90
17619;DHT22;8928;51.678;6.074;2023-04-01T05:36:42;9.10;99.90
17619;DHT22;8928;51.678;6.074;2023-04-01T05:39:29;9.10;99.90
17619;DHT22;8928;51.678;6.074;2023-04-01T05:42:16;9.10;99.90
17619;DHT22;8928;51.678;6.074;2023-04-01T05:45:04;9.10;99.90
17619;DHT22;8928;51.678;6.074;2023-04-01T05:47:52;9.10;99.90
17619;DHT22;8928;51.678;6.074;2023-04-01T05:50:40;9.10;99.90
17619;DHT22;8928;51.678;6.074;2023-04-01T05:53:27;9.10;99.90
17619;DHT22;8928;51.678;6.074;2023-04-01T05:56:14;9.10;99.90
17619;DHT22;8928;51.678;6.074;2023-04-01T05:59:01;9.10;99.90
17619;DHT22;8928;51.678;6.074;2023-04-01T06:01:48;9.10;99.90
17619;DHT22;8928;51.678;6.074;2023-04-01T06:04:38;9.10;99.90
17619;DHT22;8928;51.678;6.074;2023-04-01T06:07:27;9.10;99.90
17619;DHT22;8928;51.678;6.074;2023-04-01T06:10:16;9.10;99.90
17619;DHT22;8928;51.678;6.074;2023-04-01T06:13:07;9.20;99.90
17619;DHT22;8928;51.678;6.074;2023-04-01T06:16:04;9.10;99.90
17619;DHT22;8928;51.678;6.074;2023-04-01T06:22:39;9.20;99.90
17619;DHT22;8928;51.678;6.074;2023-04-01T06:25:59;9.20;99.90
17619;DHT22;8928;51.678;6.074;2023-04-01T06:29:27;9.20;99.90
17619;DHT22;8928;51.678;6.074;2023-04-01T06:32:27;9.30;99.90
17619;DHT22;8928;51.678;6.074;2023-04-01T06:35:42;9.30;99.90
17619;DHT22;8928;51.678;6.074;2023-04-01T06:38:50;9.30;99.90
17619;DHT22;8928;51.678;6.074;2023-04-01T06:42:11;9.30;99.90
17619;DHT22;8928;51.678;6.074;2023-04-01T06:45:15;9.30;99.90
17619;DHT22;8928;51.678;6.074;2023-04-01T06:48:20;9.40;99.90
17619;DHT22;8928;51.678;6.074;2023-04-01T06:51:24;9.40;99.90
17619;DHT22;8928;51.678;6.074;2023-04-01T06:54:18;9.40;99.90
17619;DHT22;8928;51.678;6.074;2023-04-01T06:57:16;9.40;99.90
17619;DHT22;8928;51.678;6.074;2023-04-01T07:00:13;9.50;99.90
17619;DHT22;8928;51.678;6.074;2023-04-01T07:03:06;9.60;99.90
17619;DHT22;8928;51.678;6.074;2023-04-01T07:06:00;9.60;99.90
17619;DHT22;8928;51.678;6.074;2023-04-01T07:08:49;9.60;99.90
17619;DHT22;8928;51.678;6.074;2023-04-01T07:11:40;9.70;99.90
17619;DHT22;8928;51.678;6.074;2023-04-01T07:14:31;9.80;99.90
17619;DHT22;8928;51.678;6.074;2023-04-01T07:17:21;9.80;99.90
17619;DHT22;8928;51.678;6.074;2023-04-01T07:20:16;9.80;99.90
17619;DHT22;8928;51.678;6.074;2023-04-01T07:23:11;9.90;99.90
17619;DHT22;8928;51.678;6.074;2023-04-01T07:26:08;9.90;99.90
17619;DHT22;8928;51.678;6.074;2023-04-01T07:29:00;9.90;99.90
17619;DHT22;8928;51.678;6.074;2023-04-01T07:31:59;9.90;99.90
17619;DHT22;8928;51.678;6.074;2023-04-01T07:34:59;10.00;99.90
17619;DHT22;8928;51.678;6.074;2023-04-01T07:38:03;9.90;99.90
17619;DHT22;8928;51.678;6.074;2023-04-01T07:40:59;10.00;99.90
17619;DHT22;8928;51.678;6.074;2023-04-01T07:43:56;10.00;99.90
17619;DHT22;8928;51.678;6.074;2023-04-01T07:50:16;10.00;99.90
17619;DHT22;8928;51.678;6.074;2023-04-01T07:53:11;10.00;99.90
17619;DHT22;8928;51.678;6.074;2023-04-01T07:56:06;10.00;99.90
17619;DHT22;8928;51.678;6.074;2023-04-01T07:58:58;10.00;99.90
17619;DHT22;8928;51.678;6.074;2023-04-01T08:01:52;10.00;99.90
17619;DHT22;8928;51.678;6.074;2023-04-01T08:04:55;10.00;99.90
17619;DHT22;8928;51.678;6.074;2023-04-01T08:07:51;10.00;99.90
17619;DHT22;8928;51.678;6.074;2023-04-01T08:10:47;10.00;99.90
17619;DHT22;8928;51.678;6.074;2023-04-01T08:13:44;10.10;99.90
17619;DHT22;8928;51.678;6.074;2023-04-01T08:16:37;10.10;99.90
17619;DHT22;8928;51.678;6.074;2023-04-01T08:19:36;10.10;99.90
17619;DHT22;8928;51.678;6.074;2023-04-01T08:22:30;10.10;99.90
17619;DHT22;8928;51.678;6.074;2023-04-01T08:25:22;10.10;99.90
17619;DHT22;8928;51.678;6.074;2023-04-01T08:28:16;10.10;99.90
17619;DHT22;8928;51.678;6.074;2023-04-01T08:31:06;10.10;99.90
17619;DHT22;8928;51.678;6.074;2023-04-01T08:33:55;10.10;99.90
17619;DHT22;8928;51.678;6.074;2023-04-01T08:36:44;10.00;99.90
17619;DHT22;8928;51.678;6.074;2023-04-01T08:39:37;10.00;99.90
17619;DHT22;8928;51.678;6.074;2023-04-01T08:42:51;10.00;99.90
17619;DHT22;8928;51.678;6.074;2023-04-01T08:46:26;10.00;99.90
17619;DHT22;8928;51.678;6.074;2023-04-01T08:49:31;10.00;99.90
17619;DHT22;8928;51.678;6.074;2023-04-01T08:52:29;10.00;99.90
17619;DHT22;8928;51.678;6.074;2023-04-01T08:55:30;10.00;99.90
17619;DHT22;8928;51.678;6.074;2023-04-01T09:02:10;10.10;99.90
17619;DHT22;8928;51.678;6.074;2023-04-01T09:08:34;10.00;99.90
17619;DHT22;8928;51.678;6.074;2023-04-01T09:11:35;10.10;99.90
17619;DHT22;8928;51.678;6.074;2023-04-01T09:14:39;10.10;99.90
17619;DHT22;8928;51.678;6.074;2023-04-01T09:21:16;10.10;99.90
17619;DHT22;8928;51.678;6.074;2023-04-01T09:24:19;10.10;99.90
17619;DHT22;8928;51.678;6.074;2023-04-01T09:27:18;10.20;99.90
17619;DHT22;8928;51.678;6.074;2023-04-01T09:36:44;10.20;99.90
17619;DHT22;8928;51.678;6.074;2023-04-01T09:39:36;10.10;99.90
17619;DHT22;8928;51.678;6.074;2023-04-01T09:42:45;10.10;99.90
17619;DHT22;8928;51.678;6.074;2023-04-01T09:45:41;10.20;99.90
17619;DHT22;8928;51.678;6.074;2023-04-01T09:48:43;10.20;99.90
17619;DHT22;8928;51.678;6.074;2023-04-01T09:51:38;10.20;99.90
17619;DHT22;8928;51.678;6.074;2023-04-01T09:54:41;10.30;99.90
17619;DHT22;8928;51.678;6.074;2023-04-01T09:58:11;10.20;99.90
17619;DHT22;8928;51.678;6.074;2023-04-01T10:01:33;10.10;99.90
17619;DHT22;8928;51.678;6.074;2023-04-01T10:04:42;10.20;99.90
17619;DHT22;8928;51.678;6.074;2023-04-01T10:14:39;10.30;99.90
17619;DHT22;8928;51.678;6.074;2023-04-01T10:17:44;10.40;99.90
17619;DHT22;8928;51.678;6.074;2023-04-01T10:20:53;10.40;99.90
17619;DHT22;8928;51.678;6.074;2023-04-01T10:24:00;10.30;99.90
17619;DHT22;8928;51.678;6.074;2023-04-01T10:27:02;10.30;99.90
17619;DHT22;8928;51.678;6.074;2023-04-01T10:30:21;10.40;99.90
17619;DHT22;8928;51.678;6.074;2023-04-01T10:36:53;10.40;99.90
17619;DHT22;8928;51.678;6.074;2023-04-01T10:40:13;10.50;99.90
17619;DHT22;8928;51.678;6.074;2023-04-01T10:43:40;10.60;99.90
17619;DHT22;8928;51.678;6.074;2023-04-01T10:46:51;10.60;99.90
17619;DHT22;8928;51.678;6.074;2023-04-01T10:56:36;10.30;99.90
17619;DHT22;8928;51.678;6.074;2023-04-01T10:59:48;10.30;99.90
17619;DHT22;8928;51.678;6.074;2023-04-01T11:10:32;10.20;99.90
17619;DHT22;8928;51.678;6.074;2023-04-01T11:17:22;10.40;99.90
17619;DHT22;8928;51.678;6.074;2023-04-01T11:23:54;10.50;99.90
17619;DHT22;8928;51.678;6.074;2023-04-01T11:26:53;10.60;99.90
17619;DHT22;8928;51.678;6.074;2023-04-01T11:33:02;10.60;99.90
17619;DHT22;8928;51.678;6.074;2023-04-01T11:36:11;10.60;99.90
17619;DHT22;8928;51.678;6.074;2023-04-01T11:39:15;10.50;99.90
17619;DHT22;8928;51.678;6.074;2023-04-01T11:42:16;10.50;99.90
17619;DHT22;8928;51.678;6.074;2023-04-01T11:45:15;10.60;99.90
17619;DHT22;8928;51.678;6.074;2023-04-01T11:48:35;10.60;99.90
17619;DHT22;8928;51.678;6.074;2023-04-01T11:51:37;10.70;99.90
17619;DHT22;8928;51.678;6.074;2023-04-01T11:54:39;10.80;99.90
17619;DHT22;8928;51.678;6.074;2023-04-01T11:57:46;10.80;99.90
17619;DHT22;8928;51.678;6.074;2023-04-01T12:00:57;10.80;99.90
17619;DHT22;8928;51.678;6.074;2023-04-01T12:04:18;10.90;99.90
17619;DHT22;8928;51.678;6.074;2023-04-01T12:07:27;10.80;99.90
17619;DHT22;8928;51.678;6.074;2023-04-01T12:10:24;10.60;99.90
17619;DHT22;8928;51.678;6.074;2023-04-01T12:13:24;10.60;99.90
17619;DHT22;8928;51.678;6.074;2023-04-01T12:16:22;10.50;99.90
17619;DHT22;8928;51.678;6.074;2023-04-01T12:19:17;10.50;99.90
17619;DHT22;8928;51.678;6.074;2023-04-01T12:22:26;10.60;99.90
17619;DHT22;8928;51.678;6.074;2023-04-01T12:25:22;10.50;99.90
17619;DHT22;8928;51.678;6.074;2023-04-01T12:28:19;10.40;99.90
17619;DHT22;8928;51.678;6.074;2023-04-01T12:31:22;10.50;99.90
17619;DHT22;8928;51.678;6.074;2023-04-01T12:34:40;10.60;99.90
17619;DHT22;8928;51.678;6.074;2023-04-01T12:37:36;10.90;99.90
17619;DHT22;8928;51.678;6.074;2023-04-01T12:40:47;11.10;99.90
17619;DHT22;8928;51.678;6.074;2023-04-01T12:43:59;11.10;99.90
17619;DHT22;8928;51.678;6.074;2023-04-01T12:47:15;11.10;99.90
17619;DHT22;8928;51.678;6.074;2023-04-01T12:50:19;11.10;99.90
17619;DHT22;8928;51.678;6.074;2023-04-01T12:53:29;10.90;99.90
17619;DHT22;8928;51.678;6.074;2023-04-01T12:56:32;10.90;99.90
17619;DHT22;8928;51.678;6.074;2023-04-01T12:59:46;10.80;99.90
17619;DHT22;8928;51.678;6.074;2023-04-01T13:02:49;11.00;99.90
17619;DHT22;8928;51.678;6.074;2023-04-01T13:09:14;11.40;99.90
17619;DHT22;8928;51.678;6.074;2023-04-01T13:12:26;12.00;99.90
17619;DHT22;8928;51.678;6.074;2023-04-01T13:15:31;12.50;99.90
17619;DHT22;8928;51.678;6.074;2023-04-01T13:18:29;12.50;99.90
17619;DHT22;8928;51.678;6.074;2023-04-01T13:21:22;12.40;99.90
17619;DHT22;8928;51.678;6.074;2023-04-01T13:24:24;12.30;99.90
17619;DHT22;8928;51.678;6.074;2023-04-01T13:27:18;12.10;99.90
17619;DHT22;8928;51.678;6.074;2023-04-01T13:30:21;11.80;99.90
17619;DHT22;8928;51.678;6.074;2023-04-01T13:33:17;11.60;99.90
17619;DHT22;8928;51.678;6.074;2023-04-01T13:36:17;11.40;99.90
17619;DHT22;8928;51.678;6.074;2023-04-01T13:39:19;11.30;99.90
17619;DHT22;8928;51.678;6.074;2023-04-01T13:42:18;11.10;99.90
17619;DHT22;8928;51.678;6.074;2023-04-01T13:45:14;10.90;99.90
17619;DHT22;8928;51.678;6.074;2023-04-01T13:48:31;10.80;99.90
17619;DHT22;8928;51.678;6.074;2023-04-01T13:51:34;10.70;99.90
17619;DHT22;8928;51.678;6.074;2023-04-01T13:54:45;10.70;99.90
17619;DHT22;8928;51.678;6.074;2023-04-01T13:57:47;10.70;99.90
17619;DHT22;8928;51.678;6.074;2023-04-01T14:00:47;10.60;99.90
17619;DHT22;8928;51.678;6.074;2023-04-01T14:06:54;10.50;99.90
17619;DHT22;8928;51.678;6.074;2023-04-01T14:09:54;10.60;99.90
17619;DHT22;8928;51.678;6.074;2023-04-01T14:12:53;10.60;99.90
17619;DHT22;8928;51.678;6.074;2023-04-01T14:15:54;10.60;99.90
17619;DHT22;8928;51.678;6.074;2023-04-01T14:19:11;10.60;99.90
17619;DHT22;8928;51.678;6.074;2023-04-01T14:22:13;10.60;99.90
17619;DHT22;8928;51.678;6.074;2023-04-01T14:25:30;10.60;99.90
17619;DHT22;8928;51.678;6.074;2023-04-01T14:28:27;10.70;99.90
17619;DHT22;8928;51.678;6.074;2023-04-01T14:31:30;10.70;99.90
17619;DHT22;8928;51.678;6.074;2023-04-01T14:34:38;10.70;99.90
17619;DHT22;8928;51.678;6.074;2023-04-01T14:37:58;10.70;99.90
17619;DHT22;8928;51.678;6.074;2023-04-01T14:40:56;10.80;99.90
17619;DHT22;8928;51.678;6.074;2023-04-01T14:44:11;10.80;99.90
17619;DHT22;8928;51.678;6.074;2023-04-01T14:47:22;10.80;99.90
17619;DHT22;8928;51.678;6.074;2023-04-01T14:50:14;10.70;99.90
17619;DHT22;8928;51.678;6.074;2023-04-01T14:53:16;10.70;99.90
17619;DHT22;8928;51.678;6.074;2023-04-01T14:56:12;10.70;99.90
17619;DHT22;8928;51.678;6.074;2023-04-01T14:59:00;10.60;99.90
17619;DHT22;8928;51.678;6.074;2023-04-01T15:01:51;10.70;99.90
17619;DHT22;8928;51.678;6.074;2023-04-01T15:04:58;10.60;99.90
17619;DHT22;8928;51.678;6.074;2023-04-01T15:08:07;10.60;99.90
17619;DHT22;8928;51.678;6.074;2023-04-01T15:11:15;10.60;99.90
17619;DHT22;8928;51.678;6.074;2023-04-01T15:14:30;10.60;99.90
17619;DHT22;8928;51.678;6.074;2023-04-01T15:17:45;10.60;99.90
17619;DHT22;8928;51.678;6.074;2023-04-01T15:21:02;10.60;99.90
17619;DHT22;8928;51.678;6.074;2023-04-01T15:23:59;10.60;99.90
17619;DHT22;8928;51.678;6.074;2023-04-01T15:27:06;10.50;99.90
17619;DHT22;8928;51.678;6.074;2023-04-01T15:30:04;10.60;99.90
17619;DHT22;8928;51.678;6.074;2023-04-01T15:33:09;10.50;99.90
17619;DHT22;8928;51.678;6.074;2023-04-01T15:36:05;10.50;99.90
17619;DHT22;8928;51.678;6.074;2023-04-01T15:39:00;10.50;99.90
17619;DHT22;8928;51.678;6.074;2023-04-01T15:42:04;10.50;99.90
17619;DHT22;8928;51.678;6.074;2023-04-01T15:45:09;10.50;99.90
17619;DHT22;8928;51.678;6.074;2023-04-01T15:48:02;10.50;99.90
17619;DHT22;8928;51.678;6.074;2023-04-01T15:51:07;10.50;99.90
17619;DHT22;8928;51.678;6.074;2023-04-01T15:57:26;10.50;99.90
17619;DHT22;8928;51.678;6.074;2023-04-01T16:00:22;10.50;99.90
17619;DHT22;8928;51.678;6.074;2023-04-01T16:03:23;10.50;99.90
17619;DHT22;8928;51.678;6.074;2023-04-01T16:06:24;10.50;99.90
17619;DHT22;8928;51.678;6.074;2023-04-01T16:09:29;10.50;99.90
17619;DHT22;8928;51.678;6.074;2023-04-01T16:12:19;10.50;99.90
17619;DHT22;8928;51.678;6.074;2023-04-01T16:15:18;10.50;99.90
17619;DHT22;8928;51.678;6.074;2023-04-01T16:18:20;10.50;99.90
17619;DHT22;8928;51.678;6.074;2023-04-01T16:21:14;10.60;99.90
17619;DHT22;8928;51.678;6.074;2023-04-01T16:24:08;10.60;99.90
17619;DHT22;8928;51.678;6.074;2023-04-01T16:27:02;10.60;99.90
17619;DHT22;8928;51.678;6.074;2023-04-01T16:29:53;10.60;99.90
17619;DHT22;8928;51.678;6.074;2023-04-01T16:32:46;10.70;99.90
17619;DHT22;8928;51.678;6.074;2023-04-01T16:35:42;10.70;99.90
17619;DHT22;8928;51.678;6.074;2023-04-01T16:38:36;10.70;99.90
17619;DHT22;8928;51.678;6.074;2023-04-01T16:41:28;10.60;99.90
17619;DHT22;8928;51.678;6.074;2023-04-01T16:44:20;10.60;99.90
17619;DHT22;8928;51.678;6.074;2023-04-01T16:47:11;10.60;99.90
17619;DHT22;8928;51.678;6.074;2023-04-01T16:50:06;10.60;99.90
17619;DHT22;8928;51.678;6.074;2023-04-01T16:53:08;10.60;99.90
17619;DHT22;8928;51.678;6.074;2023-04-01T16:56:04;10.50;99.90
17619;DHT22;8928;51.678;6.074;2023-04-01T16:59:01;10.50;99.90
17619;DHT22;8928;51.678;6.074;2023-04-01T17:01:52;10.40;99.90
17619;DHT22;8928;51.678;6.074;2023-04-01T17:04:43;10.40;99.90
17619;DHT22;8928;51.678;6.074;2023-04-01T17:07:40;10.20;99.90
17619;DHT22;8928;51.678;6.074;2023-04-01T17:10:43;10.20;99.90
17619;DHT22;8928;51.678;6.074;2023-04-01T17:13:36;10.20;99.90
17619;DHT22;8928;51.678;6.074;2023-04-01T17:19:45;10.10;99.90
17619;DHT22;8928;51.678;6.074;2023-04-01T17:22:41;10.00;99.90
17619;DHT22;8928;51.678;6.074;2023-04-01T17:25:44;10.00;99.90
17619;DHT22;8928;51.678;6.074;2023-04-01T17:28:42;10.00;99.90
17619;DHT22;8928;51.678;6.074;2023-04-01T17:31:41;10.10;99.90
17619;DHT22;8928;51.678;6.074;2023-04-01T17:34:39;10.10;99.90
17619;DHT22;8928;51.678;6.074;2023-04-01T17:37:42;10.10;99.90
17619;DHT22;8928;51.678;6.074;2023-04-01T17:40:39;10.10;99.90
17619;DHT22;8928;51.678;6.074;2023-04-01T17:43:40;10.10;99.90
17619;DHT22;8928;51.678;6.074;2023-04-01T17:46:37;10.20;99.90
17619;DHT22;8928;51.678;6.074;2023-04-01T17:49:32;10.20;99.90
17619;DHT22;8928;51.678;6.074;2023-04-01T17:52:27;10.20;99.90
17619;DHT22;8928;51.678;6.074;2023-04-01T17:55:44;10.20;99.90
17619;DHT22;8928;51.678;6.074;2023-04-01T17:58:41;10.20;99.90
17619;DHT22;8928;51.678;6.074;2023-04-01T18:01:43;10.10;99.90
17619;DHT22;8928;51.678;6.074;2023-04-01T18:04:52;10.10;99.90
17619;DHT22;8928;51.678;6.074;2023-04-01T18:08:04;10.00;99.90
17619;DHT22;8928;51.678;6.074;2023-04-01T18:11:08;10.00;99.90
17619;DHT22;8928;51.678;6.074;2023-04-01T18:14:30;9.90;99.90
17619;DHT22;8928;51.678;6.074;2023-04-01T18:17:25;9.90;99.90
17619;DHT22;8928;51.678;6.074;2023-04-01T18:20:25;9.90;99.90
17619;DHT22;8928;51.678;6.074;2023-04-01T18:23:26;9.80;99.90
17619;DHT22;8928;51.678;6.074;2023-04-01T18:26:22;9.80;99.90
17619;DHT22;8928;51.678;6.074;2023-04-01T18:29:13;9.80;99.90
17619;DHT22;8928;51.678;6.074;2023-04-01T18:32:13;9.70;99.90
17619;DHT22;8928;51.678;6.074;2023-04-01T18:35:16;9.70;99.90
17619;DHT22;8928;51.678;6.074;2023-04-01T18:38:11;9.60;99.90
17619;DHT22;8928;51.678;6.074;2023-04-01T18:41:12;9.60;99.90
17619;DHT22;8928;51.678;6.074;2023-04-01T18:44:11;9.50;99.90
17619;DHT22;8928;51.678;6.074;2023-04-01T18:47:08;9.50;99.90
17619;DHT22;8928;51.678;6.074;2023-04-01T18:50:02;9.50;99.90
17619;DHT22;8928;51.678;6.074;2023-04-01T18:52:57;9.40;99.90
17619;DHT22;8928;51.678;6.074;2023-04-01T18:55:49;9.40;99.90
17619;DHT22;8928;51.678;6.074;2023-04-01T18:58:46;9.40;99.90
17619;DHT22;8928;51.678;6.074;2023-04-01T19:01:39;9.30;99.90
17619;DHT22;8928;51.678;6.074;2023-04-01T19:04:32;9.30;99.90
17619;DHT22;8928;51.678;6.074;2023-04-01T19:07:46;9.30;99.90
17619;DHT22;8928;51.678;6.074;2023-04-01T19:10:40;9.20;99.90
17619;DHT22;8928;51.678;6.074;2023-04-01T19:13:36;9.20;99.90
17619;DHT22;8928;51.678;6.074;2023-04-01T19:16:39;9.20;99.90
17619;DHT22;8928;51.678;6.074;2023-04-01T19:19:47;9.10;99.90
17619;DHT22;8928;51.678;6.074;2023-04-01T19:23:02;9.10;99.90
17619;DHT22;8928;51.678;6.074;2023-04-01T19:25:55;9.10;99.90
17619;DHT22;8928;51.678;6.074;2023-04-01T19:28:48;9.10;99.90
17619;DHT22;8928;51.678;6.074;2023-04-01T19:31:50;9.10;99.90
17619;DHT22;8928;51.678;6.074;2023-04-01T19:34:49;9.10;99.90
17619;DHT22;8928;51.678;6.074;2023-04-01T19:37:40;9.00;99.90
17619;DHT22;8928;51.678;6.074;2023-04-01T19:40:42;9.00;99.90
17619;DHT22;8928;51.678;6.074;2023-04-01T19:43:52;8.90;99.90
17619;DHT22;8928;51.678;6.074;2023-04-01T19:46:44;8.90;99.90
17619;DHT22;8928;51.678;6.074;2023-04-01T19:49:43;8.90;99.90
17619;DHT22;8928;51.678;6.074;2023-04-01T19:52:36;8.90;99.90
17619;DHT22;8928;51.678;6.074;2023-04-01T19:55:33;8.80;99.90
17619;DHT22;8928;51.678;6.074;2023-04-01T19:58:26;8.80;99.90
17619;DHT22;8928;51.678;6.074;2023-04-01T20:01:21;8.80;99.90
17619;DHT22;8928;51.678;6.074;2023-04-01T20:04:13;8.70;99.90
17619;DHT22;8928;51.678;6.074;2023-04-01T20:07:07;8.70;99.90
17619;DHT22;8928;51.678;6.074;2023-04-01T20:10:01;8.70;99.90
17619;DHT22;8928;51.678;6.074;2023-04-01T20:12:56;8.60;99.90
17619;DHT22;8928;51.678;6.074;2023-04-01T20:15:46;8.60;99.90
17619;DHT22;8928;51.678;6.074;2023-04-01T20:18:38;8.60;99.90
17619;DHT22;8928;51.678;6.074;2023-04-01T20:21:35;8.60;99.90